createdAt,value
2022-11-26T00:00:01.559Z,7.63
2022-11-26T00:00:34.726Z,7.43
2022-11-26T00:01:28.334Z,7.23
2022-11-26T00:02:13.956Z,7.32
2022-11-26T00:02:48.356Z,7.68
2022-11-26T00:03:22.184Z,8.06
2022-11-26T00:03:57.423Z,8.45
2022-11-26T00:04:30.526Z,8.84
2022-11-26T00:05:03.698Z,9.18
2022-11-26T00:05:37.109Z,9.48
2022-11-26T00:06:36.378Z,9.67
2022-11-26T00:07:11.308Z,9.59
2022-11-26T00:07:46.185Z,9.41
2022-11-26T00:08:31.198Z,9.16
2022-11-26T00:09:05.537Z,8.79
2022-11-26T00:09:38.781Z,8.51
2022-11-26T00:10:20.694Z,8.25
2022-11-26T00:10:54.538Z,7.92
2022-11-26T00:11:27.616Z,7.69
2022-11-26T00:12:00.745Z,7.46
2022-11-26T00:12:34.781Z,7.27
2022-11-26T00:13:14.656Z,7.11
2022-11-26T00:13:48.099Z,7.12
2022-11-26T00:14:21.206Z,7.33
2022-11-26T00:14:54.438Z,7.65
2022-11-26T00:15:29.286Z,8.02
2022-11-26T00:16:02.469Z,8.39
2022-11-26T00:16:35.770Z,8.74
2022-11-26T00:17:11.778Z,9.05
2022-11-26T00:17:45.091Z,9.34
2022-11-26T00:18:19.264Z,9.50
2022-11-26T00:18:52.361Z,9.50
2022-11-26T00:19:25.812Z,9.38
2022-11-26T00:19:58.828Z,9.17
2022-11-26T00:20:32.556Z,8.92
2022-11-26T00:21:10.817Z,8.62
2022-11-26T00:21:43.943Z,8.31
2022-11-26T00:22:30.458Z,8.04
2022-11-26T00:23:04.839Z,7.70
2022-11-26T00:23:38.138Z,7.47
2022-11-26T00:24:24.090Z,7.28
2022-11-26T00:24:57.185Z,7.19
2022-11-26T00:25:47.415Z,7.35
2022-11-26T00:26:22.083Z,7.79
2022-11-26T00:26:57.127Z,8.14
2022-11-26T00:27:30.411Z,8.52
2022-11-26T00:28:03.724Z,8.88
2022-11-26T00:28:37.758Z,9.20
2022-11-26T00:29:10.876Z,9.47
2022-11-26T00:29:44.006Z,9.63
2022-11-26T00:30:18.952Z,9.63
2022-11-26T00:30:52.615Z,9.48
2022-11-26T00:31:25.872Z,9.26
2022-11-26T00:31:59.025Z,9.00
2022-11-26T00:32:32.258Z,8.73
2022-11-26T00:33:05.407Z,8.45
2022-11-26T00:33:38.512Z,8.19
2022-11-26T00:34:11.623Z,7.93
2022-11-26T00:34:44.832Z,7.68
2022-11-26T00:35:18.161Z,7.46
2022-11-26T00:35:54.118Z,7.28
2022-11-26T00:36:32.277Z,7.22
2022-11-26T00:37:05.947Z,7.41
2022-11-26T00:37:41.654Z,7.70
2022-11-26T00:38:17.363Z,8.07
2022-11-26T00:38:53.729Z,8.44
2022-11-26T00:39:27.517Z,8.83
2022-11-26T00:40:02.596Z,9.16
2022-11-26T00:40:37.082Z,9.43
2022-11-26T00:41:23.440Z,9.59
2022-11-26T00:42:00.130Z,9.52
2022-11-26T00:42:33.785Z,9.32
2022-11-26T00:43:09.921Z,9.10
2022-11-26T00:43:42.933Z,8.81
2022-11-26T00:44:17.636Z,8.53
2022-11-26T00:44:50.634Z,8.26
2022-11-26T00:45:27.993Z,8.01
2022-11-26T00:46:01.208Z,7.73
2022-11-26T00:46:34.282Z,7.52
2022-11-26T00:47:09.365Z,7.33
2022-11-26T00:47:42.368Z,7.27
2022-11-26T00:48:15.885Z,7.42
2022-11-26T00:48:49.313Z,7.73
2022-11-26T00:49:22.719Z,8.10
2022-11-26T00:49:55.977Z,8.50
2022-11-26T00:50:32.557Z,8.90
2022-11-26T00:51:05.974Z,9.29
2022-11-26T00:51:39.524Z,9.62
2022-11-26T00:52:22.960Z,9.82
2022-11-26T00:52:56.957Z,9.81
2022-11-26T00:53:30.122Z,9.67
2022-11-26T00:54:04.241Z,9.45
2022-11-26T00:54:38.078Z,9.18
2022-11-26T00:55:18.174Z,8.90
2022-11-26T00:55:51.496Z,8.55
2022-11-26T00:56:25.116Z,8.29
2022-11-26T00:56:58.356Z,8.04
2022-11-26T00:57:31.526Z,7.81
2022-11-26T00:58:05.521Z,7.59
2022-11-26T00:58:38.867Z,7.40
2022-11-26T00:59:16.000Z,7.35
2022-11-26T00:59:49.368Z,7.51
2022-11-26T01:00:24.543Z,7.82
2022-11-26T01:00:59.445Z,8.22
2022-11-26T01:01:33.223Z,8.63
2022-11-26T01:02:06.343Z,9.04
2022-11-26T01:02:39.575Z,9.38
2022-11-26T01:03:12.746Z,9.69
2022-11-26T01:03:45.969Z,9.87
2022-11-26T01:04:19.257Z,9.89
2022-11-26T01:04:52.333Z,9.77
2022-11-26T01:05:26.847Z,9.56
2022-11-26T01:06:00.441Z,9.30
2022-11-26T01:06:35.108Z,9.01
2022-11-26T01:07:10.260Z,8.71
2022-11-26T01:07:44.258Z,8.42
2022-11-26T01:08:17.455Z,8.15
2022-11-26T01:08:50.850Z,7.92
2022-11-26T01:09:23.997Z,7.71
2022-11-26T01:09:57.244Z,7.51
2022-11-26T01:10:30.526Z,7.34
2022-11-26T01:11:05.024Z,7.34
2022-11-26T01:11:38.240Z,7.54
2022-11-26T01:12:15.125Z,7.88
2022-11-26T01:12:48.544Z,8.29
2022-11-26T01:13:21.792Z,8.69
2022-11-26T01:13:55.614Z,9.09
2022-11-26T01:14:28.735Z,9.44
2022-11-26T01:15:02.008Z,9.74
2022-11-26T01:15:35.159Z,9.93
2022-11-26T01:16:20.226Z,9.94
2022-11-26T01:16:55.369Z,9.75
2022-11-26T01:17:28.666Z,9.51
2022-11-26T01:18:01.841Z,9.24
2022-11-26T01:18:35.742Z,8.97
2022-11-26T01:19:10.745Z,8.68
2022-11-26T01:19:43.997Z,8.40
2022-11-26T01:20:25.464Z,8.14
2022-11-26T01:20:59.004Z,7.84
2022-11-26T01:21:33.676Z,7.62
2022-11-26T01:22:06.793Z,7.44
2022-11-26T01:22:39.932Z,7.40
2022-11-26T01:23:14.740Z,7.55
2022-11-26T01:23:48.237Z,7.84
2022-11-26T01:24:21.416Z,8.22
2022-11-26T01:24:54.571Z,8.62
2022-11-26T01:25:27.750Z,9.00
2022-11-26T01:26:06.129Z,9.37
2022-11-26T01:26:40.972Z,9.72
2022-11-26T01:27:14.132Z,9.88
2022-11-26T01:27:47.275Z,9.88
2022-11-26T01:28:20.327Z,9.74
2022-11-26T01:28:53.751Z,9.53
2022-11-26T01:29:26.834Z,9.28
2022-11-26T01:29:59.912Z,9.00
2022-11-26T01:30:33.706Z,8.72
2022-11-26T01:31:09.363Z,8.44
2022-11-26T01:31:42.800Z,8.16
2022-11-26T01:32:16.051Z,7.93
2022-11-26T01:32:49.431Z,7.71
2022-11-26T01:33:22.661Z,7.49
2022-11-26T01:33:56.524Z,7.34
2022-11-26T01:34:29.772Z,7.34
2022-11-26T01:35:02.902Z,7.55
2022-11-26T01:35:36.176Z,7.87
2022-11-26T01:36:29.702Z,8.25
2022-11-26T01:37:02.924Z,8.84
2022-11-26T01:37:36.078Z,9.18
2022-11-26T01:38:11.663Z,9.51
2022-11-26T01:38:44.839Z,9.78
2022-11-26T01:39:20.229Z,9.88
2022-11-26T01:39:53.484Z,9.84
2022-11-26T01:40:26.501Z,9.67
2022-11-26T01:41:22.965Z,9.43
2022-11-26T01:41:59.802Z,8.98
2022-11-26T01:42:41.721Z,8.66
2022-11-26T01:43:22.968Z,8.33
2022-11-26T01:43:57.171Z,8.04
2022-11-26T01:44:32.273Z,7.82
2022-11-26T01:45:14.437Z,7.58
2022-11-26T01:45:47.869Z,7.37
2022-11-26T01:46:22.625Z,7.35
2022-11-26T01:46:56.242Z,7.53
2022-11-26T01:47:30.105Z,7.84
2022-11-26T01:48:11.113Z,8.21
2022-11-26T01:48:45.100Z,8.69
2022-11-26T01:49:29.905Z,9.08
2022-11-26T01:50:21.964Z,9.51
2022-11-26T01:51:05.396Z,9.88
2022-11-26T01:51:38.819Z,9.93
2022-11-26T01:52:20.769Z,9.82
2022-11-26T01:52:59.232Z,9.56
2022-11-26T01:53:34.438Z,9.28
2022-11-26T01:54:08.328Z,9.00
2022-11-26T01:54:44.027Z,8.72
2022-11-26T01:55:18.542Z,8.44
2022-11-26T01:56:02.417Z,8.18
2022-11-26T01:56:40.247Z,7.87
2022-11-26T01:57:17.097Z,7.64
2022-11-26T01:57:51.183Z,7.43
2022-11-26T01:58:28.668Z,7.26
2022-11-26T01:59:12.895Z,7.23
2022-11-26T01:59:50.539Z,7.48
2022-11-26T02:00:23.708Z,7.86
2022-11-26T02:00:56.944Z,8.26
2022-11-26T02:01:30.296Z,8.66
2022-11-26T02:02:03.899Z,9.05
2022-11-26T02:02:37.716Z,9.41
2022-11-26T02:03:10.980Z,9.70
2022-11-26T02:03:48.275Z,9.86
2022-11-26T02:04:26.706Z,9.85
2022-11-26T02:05:03.565Z,9.66
2022-11-26T02:06:05.981Z,9.41
2022-11-26T02:06:39.416Z,8.90
2022-11-26T02:07:12.954Z,8.63
2022-11-26T02:07:46.569Z,8.36
2022-11-26T02:08:19.905Z,8.12
2022-11-26T02:08:53.616Z,7.90
2022-11-26T02:09:27.912Z,7.69
2022-11-26T02:10:01.749Z,7.47
2022-11-26T02:10:35.374Z,7.30
2022-11-26T02:11:16.761Z,7.27
2022-11-26T02:11:49.937Z,7.48
2022-11-26T02:12:23.096Z,7.80
2022-11-26T02:12:56.304Z,8.17
2022-11-26T02:13:29.592Z,8.54
2022-11-26T02:14:05.167Z,8.92
2022-11-26T02:14:42.275Z,9.28
2022-11-26T02:15:15.493Z,9.58
2022-11-26T02:16:09.013Z,9.73
2022-11-26T02:16:44.887Z,9.65
2022-11-26T02:17:28.401Z,9.45
2022-11-26T02:18:04.295Z,9.14
2022-11-26T02:18:41.870Z,8.86
2022-11-26T02:19:34.025Z,8.55
2022-11-26T02:20:10.139Z,8.15
2022-11-26T02:20:46.450Z,7.90
2022-11-26T02:21:24.409Z,7.68
2022-11-26T02:22:04.789Z,7.45
2022-11-26T02:22:50.256Z,7.25
2022-11-26T02:23:23.720Z,7.26
2022-11-26T02:23:56.895Z,7.48
2022-11-26T02:24:48.568Z,7.80
2022-11-26T02:25:40.531Z,8.33
2022-11-26T02:26:29.181Z,8.85
2022-11-26T02:27:21.752Z,9.29
2022-11-26T02:28:13.559Z,9.62
2022-11-26T02:29:05.487Z,9.68
2022-11-26T02:29:57.276Z,9.44
2022-11-26T02:30:32.361Z,9.08
2022-11-26T02:31:27.555Z,8.81
2022-11-26T02:32:03.812Z,8.37
2022-11-26T02:32:54.773Z,8.12
2022-11-26T02:33:31.475Z,7.77
2022-11-26T02:34:11.271Z,7.54
2022-11-26T02:34:44.650Z,7.32
2022-11-26T02:35:31.760Z,7.17
2022-11-26T02:36:10.522Z,7.17
2022-11-26T02:36:49.726Z,7.43
2022-11-26T02:37:28.136Z,7.81
2022-11-26T02:38:12.063Z,8.24
2022-11-26T02:38:45.188Z,8.69
2022-11-26T02:39:23.061Z,9.02
2022-11-26T02:39:56.997Z,9.35
2022-11-26T02:40:30.359Z,9.59
2022-11-26T02:41:03.858Z,9.72
2022-11-26T02:41:43.876Z,9.69
2022-11-26T02:42:25.814Z,9.50
2022-11-26T02:42:59.068Z,9.21
2022-11-26T02:43:32.661Z,8.93
2022-11-26T02:44:05.798Z,8.66
2022-11-26T02:44:44.040Z,8.39
2022-11-26T02:45:22.213Z,8.10
2022-11-26T02:46:03.581Z,7.83
2022-11-26T02:46:38.064Z,7.57
2022-11-26T02:47:12.446Z,7.36
2022-11-26T02:47:47.493Z,7.21
2022-11-26T02:48:22.374Z,7.22
2022-11-26T02:48:55.594Z,7.43
2022-11-26T02:49:30.500Z,7.76
2022-11-26T02:50:06.502Z,8.15
2022-11-26T02:50:46.020Z,8.57
2022-11-26T02:51:22.522Z,8.99
2022-11-26T02:51:57.866Z,9.31
2022-11-26T02:52:31.645Z,9.57
2022-11-26T02:53:05.766Z,9.72
2022-11-26T02:53:40.243Z,9.71
2022-11-26T02:54:13.847Z,9.57
2022-11-26T02:54:48.718Z,9.36
2022-11-26T02:55:25.540Z,9.08
2022-11-26T02:56:03.925Z,8.77
2022-11-26T02:56:37.995Z,8.44
2022-11-26T02:57:13.711Z,8.17
2022-11-26T02:57:50.873Z,7.92
2022-11-26T02:58:24.147Z,7.65
2022-11-26T02:58:58.047Z,7.43
2022-11-26T02:59:31.542Z,7.26
2022-11-26T03:00:06.094Z,7.24
2022-11-26T03:00:41.449Z,7.39
2022-11-26T03:01:29.567Z,7.69
2022-11-26T03:02:10.486Z,8.15
2022-11-26T03:02:43.501Z,8.56
2022-11-26T03:03:26.468Z,8.83
2022-11-26T03:04:02.590Z,9.22
2022-11-26T03:04:40.832Z,9.52
2022-11-26T03:05:16.929Z,9.79
2022-11-26T03:05:53.856Z,9.90
2022-11-26T03:06:28.401Z,9.84
2022-11-26T03:07:03.442Z,9.64
2022-11-26T03:07:36.975Z,9.40
2022-11-26T03:08:10.188Z,9.13
2022-11-26T03:08:44.322Z,8.84
2022-11-26T03:09:18.284Z,8.56
2022-11-26T03:09:56.511Z,8.27
2022-11-26T03:10:30.486Z,7.98
2022-11-26T03:11:03.881Z,7.74
2022-11-26T03:11:37.211Z,7.52
2022-11-26T03:12:10.557Z,7.30
2022-11-26T03:12:43.703Z,7.14
2022-11-26T03:13:17.008Z,7.13
2022-11-26T03:13:50.185Z,7.28
2022-11-26T03:14:23.377Z,7.56
2022-11-26T03:14:56.810Z,7.91
2022-11-26T03:15:29.930Z,8.28
2022-11-26T03:16:02.991Z,8.63
2022-11-26T03:16:36.183Z,8.97
2022-11-26T03:17:09.374Z,9.27
2022-11-26T03:17:42.639Z,9.51
2022-11-26T03:18:15.949Z,9.63
2022-11-26T03:18:49.106Z,9.59
2022-11-26T03:19:22.314Z,9.44
2022-11-26T03:19:55.431Z,9.21
2022-11-26T03:20:28.556Z,8.95
2022-11-26T03:21:01.742Z,8.67
2022-11-26T03:21:35.175Z,8.39
2022-11-26T03:22:08.575Z,8.12
2022-11-26T03:22:41.775Z,7.86
2022-11-26T03:23:14.751Z,7.64
2022-11-26T03:23:47.839Z,7.41
2022-11-26T03:24:20.887Z,7.23
2022-11-26T03:24:53.971Z,7.18
2022-11-26T03:25:27.208Z,7.32
2022-11-26T03:26:00.410Z,7.59
2022-11-26T03:26:33.574Z,7.94
2022-11-26T03:27:06.853Z,8.30
2022-11-26T03:27:40.022Z,8.65
2022-11-26T03:28:13.142Z,8.98
2022-11-26T03:28:46.248Z,9.27
2022-11-26T03:29:19.242Z,9.53
2022-11-26T03:29:52.383Z,9.69
2022-11-26T03:30:25.550Z,9.68
2022-11-26T03:30:59.095Z,9.55
2022-11-26T03:31:32.170Z,9.34
2022-11-26T03:32:05.809Z,9.09
2022-11-26T03:32:39.122Z,8.81
2022-11-26T03:33:12.178Z,8.53
2022-11-26T03:33:45.300Z,8.26
2022-11-26T03:34:18.491Z,8.02
2022-11-26T03:34:51.576Z,7.77
2022-11-26T03:35:24.918Z,7.56
2022-11-26T03:35:58.086Z,7.39
2022-11-26T03:36:31.259Z,7.35
2022-11-26T03:37:04.358Z,7.48
2022-11-26T03:37:37.504Z,7.76
2022-11-26T03:38:10.813Z,8.08
2022-11-26T03:38:43.791Z,8.43
2022-11-26T03:39:17.265Z,8.78
2022-11-26T03:39:50.661Z,9.10
2022-11-26T03:40:23.886Z,9.39
2022-11-26T03:41:00.959Z,9.63
2022-11-26T03:41:33.987Z,9.75
2022-11-26T03:42:06.995Z,9.70
2022-11-26T03:42:40.016Z,9.55
2022-11-26T03:43:13.265Z,9.33
2022-11-26T03:43:46.531Z,9.08
2022-11-26T03:44:19.658Z,8.79
2022-11-26T03:44:52.825Z,8.51
2022-11-26T03:45:26.150Z,8.25
2022-11-26T03:45:59.546Z,8.00
2022-11-26T03:46:32.602Z,7.76
2022-11-26T03:47:05.817Z,7.55
2022-11-26T03:47:39.229Z,7.37
2022-11-26T03:48:12.267Z,7.34
2022-11-26T03:48:45.298Z,7.47
2022-11-26T03:49:18.541Z,7.75
2022-11-26T03:49:51.739Z,8.10
2022-11-26T03:50:25.034Z,8.47
2022-11-26T03:50:58.126Z,8.83
2022-11-26T03:51:31.155Z,9.15
2022-11-26T03:52:04.350Z,9.43
2022-11-26T03:52:37.459Z,9.66
2022-11-26T03:53:10.480Z,9.77
2022-11-26T03:53:43.767Z,9.72
2022-11-26T03:54:16.746Z,9.56
2022-11-26T03:54:49.834Z,9.34
2022-11-26T03:55:23.059Z,9.08
2022-11-26T03:55:56.255Z,8.80
2022-11-26T03:56:29.683Z,8.53
2022-11-26T03:57:02.995Z,8.26
2022-11-26T03:57:36.158Z,8.03
2022-11-26T03:58:09.217Z,7.80
2022-11-26T03:58:42.479Z,7.58
2022-11-26T03:59:15.754Z,7.41
2022-11-26T03:59:48.893Z,7.37
2022-11-26T04:00:22.033Z,7.50
2022-11-26T04:00:55.412Z,7.75
2022-11-26T04:01:28.868Z,8.08
2022-11-26T04:02:02.019Z,8.41
2022-11-26T04:02:35.915Z,8.73
2022-11-26T04:03:09.225Z,9.05
2022-11-26T04:03:42.455Z,9.32
2022-11-26T04:04:15.577Z,9.54
2022-11-26T04:04:48.575Z,9.67
2022-11-26T04:05:21.864Z,9.66
2022-11-26T04:05:54.971Z,9.52
2022-11-26T04:06:28.142Z,9.32
2022-11-26T04:07:01.297Z,9.06
2022-11-26T04:07:34.420Z,8.80
2022-11-26T04:08:07.636Z,8.52
2022-11-26T04:08:40.979Z,8.26
2022-11-26T04:09:14.143Z,8.01
2022-11-26T04:09:47.190Z,7.77
2022-11-26T04:10:20.472Z,7.55
2022-11-26T04:10:53.642Z,7.37
2022-11-26T04:11:26.884Z,7.31
2022-11-26T04:12:00.476Z,7.41
2022-11-26T04:12:33.616Z,7.65
2022-11-26T04:13:06.722Z,7.96
2022-11-26T04:13:40.060Z,8.31
2022-11-26T04:14:13.220Z,8.65
2022-11-26T04:14:46.379Z,8.98
2022-11-26T04:15:19.501Z,9.27
2022-11-26T04:15:52.919Z,9.52
2022-11-26T04:16:26.126Z,9.72
2022-11-26T04:16:59.423Z,9.81
2022-11-26T04:17:32.929Z,9.74
2022-11-26T04:18:06.101Z,9.57
2022-11-26T04:18:39.243Z,9.33
2022-11-26T04:19:12.326Z,9.07
2022-11-26T04:19:45.506Z,8.80
2022-11-26T04:20:18.760Z,8.52
2022-11-26T04:20:53.514Z,8.25
2022-11-26T04:21:26.847Z,8.00
2022-11-26T04:22:00.010Z,7.74
2022-11-26T04:22:33.151Z,7.52
2022-11-26T04:23:06.452Z,7.34
2022-11-26T04:23:39.873Z,7.29
2022-11-26T04:24:13.057Z,7.41
2022-11-26T04:24:46.146Z,7.65
2022-11-26T04:25:20.022Z,7.96
2022-11-26T04:25:52.979Z,8.29
2022-11-26T04:26:26.157Z,8.60
2022-11-26T04:26:59.246Z,8.92
2022-11-26T04:27:32.437Z,9.18
2022-11-26T04:28:05.604Z,9.43
2022-11-26T04:28:38.560Z,9.61
2022-11-26T04:29:11.505Z,9.70
2022-11-26T04:29:44.541Z,9.64
2022-11-26T04:30:17.725Z,9.47
2022-11-26T04:30:50.825Z,9.25
2022-11-26T04:31:23.849Z,8.99
2022-11-26T04:31:57.083Z,8.71
2022-11-26T04:32:30.219Z,8.43
2022-11-26T04:33:03.288Z,8.18
2022-11-26T04:33:36.629Z,7.94
2022-11-26T04:34:09.929Z,7.72
2022-11-26T04:34:43.015Z,7.50
2022-11-26T04:35:16.257Z,7.34
2022-11-26T04:35:50.358Z,7.30
2022-11-26T04:36:23.502Z,7.46
2022-11-26T04:36:56.671Z,7.72
2022-11-26T04:37:29.748Z,8.03
2022-11-26T04:38:02.817Z,8.36
2022-11-26T04:38:36.978Z,8.70
2022-11-26T04:39:10.041Z,9.03
2022-11-26T04:39:43.263Z,9.31
2022-11-26T04:40:16.351Z,9.52
2022-11-26T04:40:49.677Z,9.64
2022-11-26T04:41:22.797Z,9.61
2022-11-26T04:41:55.900Z,9.47
2022-11-26T04:42:29.063Z,9.25
2022-11-26T04:43:02.110Z,9.00
2022-11-26T04:43:35.219Z,8.72
2022-11-26T04:44:08.495Z,8.45
2022-11-26T04:44:41.419Z,8.20
2022-11-26T04:45:14.644Z,7.96
2022-11-26T04:45:48.021Z,7.72
2022-11-26T04:46:21.345Z,7.50
2022-11-26T04:46:54.557Z,7.34
2022-11-26T04:47:27.733Z,7.33
2022-11-26T04:48:00.752Z,7.51
2022-11-26T04:48:33.875Z,7.83
2022-11-26T04:49:06.878Z,8.21
2022-11-26T04:49:39.944Z,8.61
2022-11-26T04:50:13.707Z,8.99
2022-11-26T04:50:46.910Z,9.33
2022-11-26T04:51:20.115Z,9.62
2022-11-26T04:51:53.186Z,9.78
2022-11-26T04:52:26.386Z,9.78
2022-11-26T04:52:59.434Z,9.65
2022-11-26T04:53:32.463Z,9.45
2022-11-26T04:54:09.903Z,9.20
2022-11-26T04:54:45.813Z,8.88
2022-11-26T04:55:19.186Z,8.60
2022-11-26T04:55:52.853Z,8.33
2022-11-26T04:56:25.942Z,8.08
2022-11-26T04:56:59.053Z,7.85
2022-11-26T04:57:32.168Z,7.63
2022-11-26T04:58:05.308Z,7.45
2022-11-26T04:58:38.574Z,7.42
2022-11-26T04:59:11.621Z,7.55
2022-11-26T04:59:44.792Z,7.80
2022-11-26T05:00:18.614Z,8.11
2022-11-26T05:00:52.257Z,8.43
2022-11-26T05:01:25.378Z,8.76
2022-11-26T05:01:59.917Z,9.05
2022-11-26T05:02:33.094Z,9.32
2022-11-26T05:03:06.394Z,9.53
2022-11-26T05:03:39.669Z,9.65
2022-11-26T05:04:12.837Z,9.61
2022-11-26T05:04:46.180Z,9.48
2022-11-26T05:05:19.453Z,9.26
2022-11-26T05:05:52.596Z,9.02
2022-11-26T05:06:25.678Z,8.75
2022-11-26T05:06:58.820Z,8.47
2022-11-26T05:07:32.111Z,8.22
2022-11-26T05:08:05.752Z,7.96
2022-11-26T05:08:38.907Z,7.73
2022-11-26T05:09:12.090Z,7.52
2022-11-26T05:09:45.338Z,7.33
2022-11-26T05:10:18.547Z,7.29
2022-11-26T05:10:55.049Z,7.42
2022-11-26T05:11:28.127Z,7.69
2022-11-26T05:12:01.534Z,7.99
2022-11-26T05:12:35.097Z,8.31
2022-11-26T05:13:08.361Z,8.63
2022-11-26T05:13:41.608Z,8.95
2022-11-26T05:14:14.777Z,9.20
2022-11-26T05:14:47.885Z,9.42
2022-11-26T05:15:21.102Z,9.54
2022-11-26T05:15:54.366Z,9.53
2022-11-26T05:16:27.478Z,9.39
2022-11-26T05:17:00.705Z,9.20
2022-11-26T05:17:34.131Z,8.96
2022-11-26T05:18:07.206Z,8.69
2022-11-26T05:18:40.452Z,8.42
2022-11-26T05:19:13.543Z,8.18
2022-11-26T05:19:46.844Z,7.93
2022-11-26T05:20:20.188Z,7.71
2022-11-26T05:20:53.403Z,7.49
2022-11-26T05:21:26.411Z,7.32
2022-11-26T05:21:59.624Z,7.29
2022-11-26T05:22:33.433Z,7.41
2022-11-26T05:23:06.907Z,7.66
2022-11-26T05:23:40.130Z,7.96
2022-11-26T05:24:13.128Z,8.27
2022-11-26T05:24:46.167Z,8.58
2022-11-26T05:25:19.163Z,8.90
2022-11-26T05:25:52.271Z,9.16
2022-11-26T05:26:25.418Z,9.39
2022-11-26T05:26:58.533Z,9.52
2022-11-26T05:27:31.654Z,9.51
2022-11-26T05:28:04.971Z,9.38
2022-11-26T05:28:38.168Z,9.17
2022-11-26T05:29:11.433Z,8.92
2022-11-26T05:29:44.611Z,8.64
2022-11-26T05:30:17.988Z,8.38
2022-11-26T05:30:57.472Z,8.13
2022-11-26T05:31:31.363Z,7.84
2022-11-26T05:32:04.951Z,7.60
2022-11-26T05:32:38.131Z,7.42
2022-11-26T05:33:11.212Z,7.35
2022-11-26T05:33:44.479Z,7.47
2022-11-26T05:34:17.813Z,7.73
2022-11-26T05:34:53.370Z,8.05
2022-11-26T05:35:28.994Z,8.43
2022-11-26T05:36:02.194Z,8.77
2022-11-26T05:36:35.456Z,9.09
2022-11-26T05:37:08.690Z,9.38
2022-11-26T05:37:41.867Z,9.60
2022-11-26T05:38:15.006Z,9.72
2022-11-26T05:38:48.161Z,9.69
2022-11-26T05:39:21.319Z,9.54
2022-11-26T05:39:54.700Z,9.32
2022-11-26T05:40:28.272Z,9.07
2022-11-26T05:41:01.405Z,8.78
2022-11-26T05:41:34.432Z,8.51
2022-11-26T05:42:09.510Z,8.24
2022-11-26T05:42:43.704Z,7.98
2022-11-26T05:43:16.783Z,7.74
2022-11-26T05:43:49.898Z,7.53
2022-11-26T05:44:22.922Z,7.36
2022-11-26T05:44:56.072Z,7.32
2022-11-26T05:45:29.358Z,7.45
2022-11-26T05:46:06.456Z,7.69
2022-11-26T05:46:40.870Z,8.03
2022-11-26T05:47:14.000Z,8.34
2022-11-26T05:47:47.244Z,8.64
2022-11-26T05:48:20.394Z,8.93
2022-11-26T05:48:53.532Z,9.17
2022-11-26T05:49:26.678Z,9.39
2022-11-26T05:49:59.763Z,9.56
2022-11-26T05:50:33.231Z,9.65
2022-11-26T05:51:06.738Z,9.60
2022-11-26T05:51:40.075Z,9.45
2022-11-26T05:52:13.187Z,9.23
2022-11-26T05:52:46.492Z,8.99
2022-11-26T05:53:19.738Z,8.73
2022-11-26T05:53:53.015Z,8.46
2022-11-26T05:54:26.398Z,8.22
2022-11-26T05:54:59.607Z,7.98
2022-11-26T05:55:32.699Z,7.75
2022-11-26T05:56:05.927Z,7.56
2022-11-26T05:56:39.087Z,7.46
2022-11-26T05:57:12.143Z,7.51
2022-11-26T05:57:45.220Z,7.69
2022-11-26T05:58:18.243Z,7.94
2022-11-26T05:58:51.548Z,8.21
2022-11-26T05:59:25.079Z,8.49
2022-11-26T05:59:58.272Z,8.78
2022-11-26T06:00:31.517Z,9.03
2022-11-26T06:01:11.033Z,9.26
2022-11-26T06:01:44.233Z,9.49
2022-11-26T06:02:17.733Z,9.67
2022-11-26T06:02:51.497Z,9.81
2022-11-26T06:03:24.925Z,9.85
2022-11-26T06:03:58.314Z,9.75
2022-11-26T06:04:31.456Z,9.57
2022-11-26T06:05:04.896Z,9.33
2022-11-26T06:05:38.123Z,9.06
2022-11-26T06:06:11.218Z,8.78
2022-11-26T06:06:44.581Z,8.51
2022-11-26T06:07:18.079Z,8.25
2022-11-26T06:07:51.729Z,8.02
2022-11-26T06:08:25.093Z,7.79
2022-11-26T06:08:58.528Z,7.68
2022-11-26T06:09:31.727Z,7.73
2022-11-26T06:10:05.490Z,7.89
2022-11-26T06:10:38.821Z,8.14
2022-11-26T06:11:13.516Z,8.43
2022-11-26T06:11:46.756Z,8.74
2022-11-26T06:12:21.207Z,9.04
2022-11-26T06:12:56.077Z,9.30
2022-11-26T06:13:29.276Z,9.51
2022-11-26T06:14:02.440Z,9.69
2022-11-26T06:14:38.125Z,9.85
2022-11-26T06:15:14.941Z,9.90
2022-11-26T06:15:48.132Z,9.81
2022-11-26T06:16:21.212Z,9.64
2022-11-26T06:16:54.437Z,9.41
2022-11-26T06:17:27.804Z,9.15
2022-11-26T06:18:01.625Z,8.89
2022-11-26T06:18:36.603Z,8.61
2022-11-26T06:19:10.848Z,8.32
2022-11-26T06:19:44.346Z,8.08
2022-11-26T06:20:17.629Z,7.87
2022-11-26T06:20:50.778Z,7.78
2022-11-26T06:21:23.817Z,7.84
2022-11-26T06:21:57.078Z,8.03
2022-11-26T06:22:30.362Z,8.30
2022-11-26T06:23:03.844Z,8.57
2022-11-26T06:23:37.173Z,8.89
2022-11-26T06:24:10.352Z,9.18
2022-11-26T06:24:43.679Z,9.46
2022-11-26T06:25:16.735Z,9.70
2022-11-26T06:25:49.967Z,9.92
2022-11-26T06:26:23.315Z,10.00
2022-11-26T06:26:56.626Z,9.97
2022-11-26T06:27:29.641Z,9.83
2022-11-26T06:28:02.833Z,9.61
2022-11-26T06:28:35.959Z,9.36
2022-11-26T06:29:09.217Z,9.08
2022-11-26T06:29:42.393Z,8.80
2022-11-26T06:30:15.774Z,8.54
2022-11-26T06:30:49.065Z,8.29
2022-11-26T06:31:22.533Z,8.06
2022-11-26T06:31:55.952Z,7.84
2022-11-26T06:32:29.520Z,7.75
2022-11-26T06:33:02.624Z,7.83
2022-11-26T06:33:36.503Z,8.03
2022-11-26T06:34:09.889Z,8.32
2022-11-26T06:34:44.226Z,8.63
2022-11-26T06:35:17.890Z,8.95
2022-11-26T06:35:51.763Z,9.24
2022-11-26T06:36:25.100Z,9.49
2022-11-26T06:36:58.153Z,9.72
2022-11-26T06:37:31.969Z,9.91
2022-11-26T06:38:05.032Z,10.00
2022-11-26T06:38:38.256Z,9.95
2022-11-26T06:39:11.506Z,9.80
2022-11-26T06:39:44.650Z,9.58
2022-11-26T06:40:19.300Z,9.33
2022-11-26T06:41:19.670Z,9.06
2022-11-26T06:41:52.797Z,8.57
2022-11-26T06:42:26.181Z,8.34
2022-11-26T06:42:59.341Z,8.12
2022-11-26T06:43:33.111Z,7.93
2022-11-26T06:44:06.341Z,7.83
2022-11-26T06:44:39.953Z,7.90
2022-11-26T06:45:13.511Z,8.11
2022-11-26T06:45:46.756Z,8.37
2022-11-26T06:46:19.982Z,8.66
2022-11-26T06:46:53.355Z,8.97
2022-11-26T06:47:26.722Z,9.25
2022-11-26T06:47:59.899Z,9.50
2022-11-26T06:48:33.708Z,9.74
2022-11-26T06:49:06.982Z,9.97
2022-11-26T06:49:40.485Z,10.08
2022-11-26T06:50:14.404Z,10.06
2022-11-26T06:50:47.651Z,9.92
2022-11-26T06:51:22.316Z,9.71
2022-11-26T06:51:55.472Z,9.45
2022-11-26T06:52:28.787Z,9.19
2022-11-26T06:53:01.929Z,8.93
2022-11-26T06:53:35.343Z,8.66
2022-11-26T06:54:08.574Z,8.42
2022-11-26T06:54:41.744Z,8.20
2022-11-26T06:55:15.014Z,8.01
2022-11-26T06:55:48.183Z,7.92
2022-11-26T06:56:21.489Z,8.00
2022-11-26T06:56:54.730Z,8.20
2022-11-26T06:57:27.794Z,8.48
2022-11-26T06:58:01.043Z,8.76
2022-11-26T06:58:34.629Z,9.07
2022-11-26T06:59:07.912Z,9.31
2022-11-26T06:59:40.965Z,9.51
2022-11-26T07:00:14.359Z,9.69
2022-11-26T07:00:47.596Z,9.82
2022-11-26T07:01:24.150Z,9.85
2022-11-26T07:01:57.773Z,9.76
2022-11-26T07:02:31.501Z,9.57
2022-11-26T07:03:04.714Z,9.34
2022-11-26T07:03:38.550Z,9.09
2022-11-26T07:04:12.139Z,8.82
2022-11-26T07:04:45.345Z,8.55
2022-11-26T07:05:18.686Z,8.31
2022-11-26T07:05:51.768Z,8.09
2022-11-26T07:06:29.158Z,7.91
2022-11-26T07:07:02.442Z,7.84
2022-11-26T07:07:39.380Z,7.94
2022-11-26T07:08:12.832Z,8.19
2022-11-26T07:08:46.621Z,8.46
2022-11-26T07:09:20.088Z,8.75
2022-11-26T07:09:53.408Z,9.05
2022-11-26T07:10:26.733Z,9.33
2022-11-26T07:11:03.554Z,9.59
2022-11-26T07:11:37.380Z,9.85
2022-11-26T07:12:11.481Z,10.03
2022-11-26T07:12:44.786Z,10.12
2022-11-26T07:13:18.154Z,10.06
2022-11-26T07:13:51.434Z,9.89
2022-11-26T07:14:24.577Z,9.67
2022-11-26T07:14:57.728Z,9.41
2022-11-26T07:15:31.071Z,9.16
2022-11-26T07:16:05.072Z,8.90
2022-11-26T07:16:38.271Z,8.62
2022-11-26T07:17:11.507Z,8.38
2022-11-26T07:17:44.658Z,8.16
2022-11-26T07:18:17.951Z,7.98
2022-11-26T07:18:54.305Z,7.92
2022-11-26T07:19:31.110Z,8.06
2022-11-26T07:20:04.671Z,8.29
2022-11-26T07:20:38.221Z,8.58
2022-11-26T07:21:12.236Z,8.87
2022-11-26T07:21:45.355Z,9.15
2022-11-26T07:22:18.426Z,9.41
2022-11-26T07:22:51.730Z,9.65
2022-11-26T07:23:25.171Z,9.87
2022-11-26T07:23:59.120Z,10.07
2022-11-26T07:24:32.426Z,10.16
2022-11-26T07:25:10.859Z,10.12
2022-11-26T07:25:45.650Z,9.94
2022-11-26T07:26:20.013Z,9.72
2022-11-26T07:26:53.321Z,9.46
2022-11-26T07:27:26.540Z,9.21
2022-11-26T07:27:59.685Z,8.96
2022-11-26T07:28:33.024Z,8.71
2022-11-26T07:29:06.338Z,8.48
2022-11-26T07:29:39.668Z,8.24
2022-11-26T07:30:13.814Z,8.07
2022-11-26T07:30:47.175Z,7.99
2022-11-26T07:31:21.708Z,8.08
2022-11-26T07:31:54.868Z,8.30
2022-11-26T07:32:29.754Z,8.58
2022-11-26T07:33:03.051Z,8.91
2022-11-26T07:33:36.338Z,9.20
2022-11-26T07:34:09.478Z,9.48
2022-11-26T07:34:42.844Z,9.72
2022-11-26T07:35:16.257Z,9.96
2022-11-26T07:35:49.613Z,10.16
2022-11-26T07:36:24.567Z,10.27
2022-11-26T07:36:58.306Z,10.24
2022-11-26T07:37:33.065Z,10.10
2022-11-26T07:38:06.307Z,9.88
2022-11-26T07:38:39.500Z,9.63
2022-11-26T07:39:12.609Z,9.38
2022-11-26T07:39:45.741Z,9.13
2022-11-26T07:40:18.861Z,8.89
2022-11-26T07:40:52.085Z,8.65